createdAt,value
2022-11-20T00:00:33.050Z,98597.94
2022-11-20T00:03:00.915Z,98603.16
2022-11-20T00:05:28.670Z,98579.13
2022-11-20T00:07:57.857Z,98579.13
2022-11-20T00:10:25.667Z,98584.78
2022-11-20T00:12:53.402Z,98599.53
2022-11-20T00:15:21.245Z,98597.66
2022-11-20T00:17:48.982Z,98581.25
2022-11-20T00:20:17.020Z,98581.06
2022-11-20T00:22:44.831Z,98587.09
2022-11-20T00:25:13.984Z,98585.69
2022-11-20T00:27:41.761Z,98588.25
2022-11-20T00:30:14.677Z,98576.25
2022-11-20T00:32:42.715Z,98575.63
2022-11-20T00:35:10.678Z,98579.75
2022-11-20T00:37:38.431Z,98569.00
2022-11-20T00:40:06.774Z,98565.03
2022-11-20T00:42:35.900Z,98585.56
2022-11-20T00:45:03.673Z,98593.50
2022-11-20T00:47:31.373Z,98601.94
2022-11-20T00:49:59.259Z,98598.28
2022-11-20T00:52:27.143Z,98600.88
2022-11-20T00:54:54.887Z,98609.72
2022-11-20T00:57:22.580Z,98606.13
2022-11-20T00:59:51.752Z,98602.31
2022-11-20T01:02:19.568Z,98600.91
2022-11-20T01:04:47.386Z,98599.00
2022-11-20T01:07:15.140Z,98596.66
2022-11-20T01:09:42.973Z,98590.78
2022-11-20T01:12:10.783Z,98588.56
2022-11-20T01:14:38.689Z,98588.72
2022-11-20T01:17:07.782Z,98579.53
2022-11-20T01:19:35.604Z,98573.28
2022-11-20T01:22:03.428Z,98572.47
2022-11-20T01:24:31.201Z,98573.34
2022-11-20T01:26:59.044Z,98578.50
2022-11-20T01:29:27.188Z,98569.72
2022-11-20T01:31:55.338Z,98561.53
2022-11-20T01:34:24.975Z,98552.50
2022-11-20T01:36:53.124Z,98540.81
2022-11-20T01:39:22.614Z,98544.56
2022-11-20T01:42:10.282Z,98540.00
2022-11-20T01:44:47.893Z,98528.44
2022-11-20T01:47:16.568Z,98532.44
2022-11-20T01:49:49.301Z,98540.97
2022-11-20T01:52:18.438Z,98544.00
2022-11-20T01:54:48.923Z,98537.09
2022-11-20T01:57:17.773Z,98529.53
2022-11-20T01:59:50.157Z,98527.94
2022-11-20T02:02:17.915Z,98508.03
2022-11-20T02:04:47.284Z,98500.59
2022-11-20T02:07:15.947Z,98506.28
2022-11-20T02:09:43.758Z,98507.06
2022-11-20T02:12:31.757Z,98512.31
2022-11-20T02:14:58.602Z,98499.38
2022-11-20T02:17:26.828Z,98510.13
2022-11-20T02:19:56.075Z,98519.75
2022-11-20T02:22:26.698Z,98508.38
2022-11-20T02:24:55.868Z,98495.44
2022-11-20T02:27:23.963Z,98477.91
2022-11-20T02:29:54.263Z,98476.00
2022-11-20T02:32:22.732Z,98470.94
2022-11-20T02:34:50.621Z,98478.19
2022-11-20T02:37:19.049Z,98461.78
2022-11-20T02:39:47.735Z,98446.13
2022-11-20T02:42:17.066Z,98442.03
2022-11-20T02:44:44.804Z,98444.41
2022-11-20T02:47:12.772Z,98427.31
2022-11-20T02:49:40.517Z,98423.03
2022-11-20T02:52:08.292Z,98426.84
2022-11-20T02:54:36.083Z,98424.16
2022-11-20T02:57:04.004Z,98418.91
2022-11-20T02:59:33.154Z,98426.81
2022-11-20T03:02:00.993Z,98439.75
2022-11-20T03:04:28.774Z,98421.56
2022-11-20T03:06:56.645Z,98422.66
2022-11-20T03:09:24.502Z,98436.41
2022-11-20T03:11:52.328Z,98443.53
2022-11-20T03:14:20.109Z,98433.59
2022-11-20T03:16:49.302Z,98428.88
2022-11-20T03:19:17.091Z,98421.28
2022-11-20T03:21:44.904Z,98430.31
2022-11-20T03:24:12.622Z,98418.94
2022-11-20T03:26:40.978Z,98414.34
2022-11-20T03:29:09.069Z,98412.94
2022-11-20T03:31:37.750Z,98399.97
2022-11-20T03:34:06.938Z,98395.38
2022-11-20T03:36:34.729Z,98397.78
2022-11-20T03:39:02.797Z,98397.78
2022-11-20T03:41:31.273Z,98394.31
2022-11-20T03:43:59.842Z,98388.09
2022-11-20T03:46:28.496Z,98351.09
2022-11-20T03:48:56.246Z,98342.25
2022-11-20T03:51:26.136Z,98371.34
2022-11-20T03:53:55.002Z,98375.13
2022-11-20T03:56:25.385Z,98376.03
2022-11-20T03:58:53.456Z,98363.41
2022-11-20T04:01:22.253Z,98354.72
2022-11-20T04:03:50.571Z,98359.63
2022-11-20T04:06:19.812Z,98343.50
2022-11-20T04:08:53.613Z,98348.53
2022-11-20T04:11:22.435Z,98345.72
2022-11-20T04:13:51.173Z,98334.66
2022-11-20T04:16:19.432Z,98317.75
2022-11-20T04:18:47.222Z,98312.69
2022-11-20T04:21:15.065Z,98318.03
2022-11-20T04:23:42.749Z,98324.97
2022-11-20T04:26:13.261Z,98304.88
2022-11-20T04:28:41.216Z,98295.75
2022-11-20T04:31:10.377Z,98302.53
2022-11-20T04:33:38.511Z,98291.78
2022-11-20T04:36:07.315Z,98290.03
2022-11-20T04:38:35.433Z,98295.59
2022-11-20T04:41:03.996Z,98303.03
2022-11-20T04:43:33.769Z,98303.50
2022-11-20T04:46:01.963Z,98295.44
2022-11-20T04:48:30.671Z,98302.06
2022-11-20T04:50:58.648Z,98299.09
2022-11-20T04:53:26.415Z,98299.25
2022-11-20T04:55:54.120Z,98297.03
2022-11-20T04:58:21.871Z,98294.03
2022-11-20T05:00:52.830Z,98288.03
2022-11-20T05:03:20.659Z,98281.06
2022-11-20T05:05:48.432Z,98279.50
2022-11-20T05:08:16.129Z,98281.06
2022-11-20T05:10:43.905Z,98279.16
2022-11-20T05:13:11.643Z,98263.84
2022-11-20T05:15:39.417Z,98262.25
2022-11-20T05:18:08.692Z,98267.31
2022-11-20T05:20:37.277Z,98258.94
2022-11-20T05:23:05.095Z,98272.06
2022-11-20T05:25:32.804Z,98279.81
2022-11-20T05:28:00.577Z,98280.28
2022-11-20T05:30:28.330Z,98271.72
2022-11-20T05:32:56.011Z,98277.13
2022-11-20T05:35:25.168Z,98285.97
2022-11-20T05:37:52.931Z,98293.72
2022-11-20T05:40:20.728Z,98295.28
2022-11-20T05:42:48.460Z,98297.19
2022-11-20T05:45:16.236Z,98294.66
2022-11-20T05:47:44.069Z,98291.38
2022-11-20T05:50:11.884Z,98302.56
2022-11-20T05:52:41.113Z,98293.09
2022-11-20T05:55:09.423Z,98286.28
2022-11-20T05:57:37.567Z,98286.00
2022-11-20T06:00:05.782Z,98288.84
2022-11-20T06:02:36.457Z,98284.56
2022-11-20T06:05:04.411Z,98299.75
2022-11-20T06:07:32.219Z,98299.63
2022-11-20T06:10:01.349Z,98292.16
2022-11-20T06:12:29.249Z,98287.28
2022-11-20T06:14:57.038Z,98292.81
2022-11-20T06:17:24.941Z,98304.03
2022-11-20T06:19:52.721Z,98298.81
2022-11-20T06:22:20.594Z,98304.81
2022-11-20T06:24:48.478Z,98302.91
2022-11-20T06:27:17.816Z,98302.91
2022-11-20T06:29:45.772Z,98304.34
2022-11-20T06:32:13.602Z,98309.06
2022-11-20T06:34:41.375Z,98319.03
2022-11-20T06:37:09.232Z,98326.66
2022-11-20T06:39:36.985Z,98331.84
2022-11-20T06:42:04.898Z,98335.34
2022-11-20T06:44:34.081Z,98341.97
2022-11-20T06:47:02.089Z,98330.09
2022-11-20T06:49:30.004Z,98331.69
2022-11-20T06:51:57.775Z,98334.38
2022-11-20T06:54:25.653Z,98329.47
2022-11-20T06:56:53.441Z,98328.66
2022-11-20T06:59:21.358Z,98323.72
2022-11-20T07:01:50.590Z,98329.44
2022-11-20T07:04:18.365Z,98344.47
2022-11-20T07:06:46.095Z,98335.31
2022-11-20T07:09:13.914Z,98326.25
2022-11-20T07:11:41.665Z,98321.50
2022-11-20T07:14:09.452Z,98325.91
2022-11-20T07:16:37.242Z,98315.91
2022-11-20T07:19:06.312Z,98320.94
2022-11-20T07:21:34.060Z,98317.44
2022-11-20T07:24:01.864Z,98322.44
2022-11-20T07:26:29.667Z,98337.50
2022-11-20T07:28:57.467Z,98345.75
2022-11-20T07:31:25.216Z,98342.28
2022-11-20T07:33:53.064Z,98344.50
2022-11-20T07:36:22.231Z,98339.72
2022-11-20T07:38:50.047Z,98337.63
2022-11-20T07:41:17.884Z,98344.13
2022-11-20T07:43:45.609Z,98343.72
2022-11-20T07:46:13.385Z,98352.41
2022-11-20T07:48:41.895Z,98353.69
2022-11-20T07:51:09.991Z,98354.16
2022-11-20T07:53:39.140Z,98363.94
2022-11-20T07:56:07.300Z,98364.53
2022-11-20T07:58:35.583Z,98360.34
2022-11-20T08:01:06.880Z,98357.00
2022-11-20T08:03:36.073Z,98355.13
2022-11-20T08:06:03.958Z,98357.75
2022-11-20T08:08:33.818Z,98358.66
2022-11-20T08:11:17.246Z,98360.56
2022-11-20T08:14:02.306Z,98355.16
2022-11-20T08:16:30.247Z,98367.78
2022-11-20T08:18:58.501Z,98356.09
2022-11-20T08:21:26.270Z,98347.00
2022-11-20T08:23:54.064Z,98350.69
2022-11-20T08:26:24.416Z,98357.38
2022-11-20T08:28:55.470Z,98362.38
2022-11-20T08:31:23.348Z,98372.09
2022-11-20T08:33:51.138Z,98373.13
2022-11-20T08:36:19.432Z,98369.66
2022-11-20T08:38:49.091Z,98365.41
2022-11-20T08:41:26.757Z,98356.63
2022-11-20T08:43:57.049Z,98364.97
2022-11-20T08:46:25.531Z,98374.78
2022-11-20T08:48:53.370Z,98376.81
2022-11-20T08:51:21.630Z,98382.78
2022-11-20T08:53:50.670Z,98382.66
2022-11-20T08:56:18.644Z,98388.19
2022-11-20T08:59:17.976Z,98383.81
2022-11-20T09:01:36.069Z,98375.72
2022-11-20T09:04:05.704Z,98374.41
2022-11-20T09:06:33.504Z,98377.19
2022-11-20T09:09:06.374Z,98377.00
2022-11-20T09:11:34.560Z,98380.13
2022-11-20T09:14:03.785Z,98375.97
2022-11-20T09:16:31.799Z,98383.97
2022-11-20T09:19:40.586Z,98381.03
2022-11-20T09:21:48.786Z,98392.66
2022-11-20T09:24:16.501Z,98399.09
2022-11-20T09:26:44.219Z,98391.31
2022-11-20T09:29:11.987Z,98383.75
2022-11-20T09:31:39.737Z,98387.16
2022-11-20T09:34:08.914Z,98378.25
2022-11-20T09:36:36.716Z,98374.06
2022-11-20T09:39:05.909Z,98360.78
2022-11-20T09:41:38.550Z,98359.72
2022-11-20T09:44:09.664Z,98345.28
2022-11-20T09:46:42.396Z,98346.63
2022-11-20T09:49:21.179Z,98354.41
2022-11-20T09:51:55.922Z,98357.13
2022-11-20T09:54:24.922Z,98356.78
2022-11-20T09:56:53.910Z,98357.00
2022-11-20T09:59:28.438Z,98353.00
2022-11-20T10:01:57.482Z,98356.38
2022-11-20T10:04:26.949Z,98365.38
2022-11-20T10:07:30.283Z,98365.25
2022-11-20T10:09:52.395Z,98355.78
2022-11-20T10:12:23.346Z,98351.28
2022-11-20T10:14:58.744Z,98340.22
2022-11-20T10:17:36.068Z,98334.31
2022-11-20T10:20:19.636Z,98338.13
2022-11-20T10:22:55.943Z,98342.78
2022-11-20T10:25:26.525Z,98340.59
2022-11-20T10:28:02.029Z,98347.44
2022-11-20T10:30:31.295Z,98341.88
2022-11-20T10:33:01.233Z,98356.97
2022-11-20T10:35:34.340Z,98340.22
2022-11-20T10:38:02.958Z,98334.81
2022-11-20T10:40:34.774Z,98339.53
2022-11-20T10:43:09.571Z,98333.34
2022-11-20T10:45:43.355Z,98322.03
2022-11-20T10:48:14.859Z,98323.06
2022-11-20T10:50:49.897Z,98330.94
2022-11-20T10:53:21.150Z,98332.75
2022-11-20T10:55:52.961Z,98329.25
2022-11-20T10:58:24.615Z,98319.78
2022-11-20T11:00:52.384Z,98322.06
2022-11-20T11:03:24.733Z,98330.63
2022-11-20T11:05:57.042Z,98332.88
2022-11-20T11:08:25.218Z,98317.72
2022-11-20T11:10:55.766Z,98321.69
2022-11-20T11:13:23.966Z,98328.53
2022-11-20T11:15:52.123Z,98323.72
2022-11-20T11:18:26.602Z,98338.59
2022-11-20T11:20:57.211Z,98339.56
2022-11-20T11:23:30.768Z,98329.44
2022-11-20T11:25:59.003Z,98318.41
2022-11-20T11:28:28.821Z,98317.63
2022-11-20T11:30:56.917Z,98312.19
2022-11-20T11:33:25.367Z,98309.69
2022-11-20T11:35:54.613Z,98308.63
2022-11-20T11:38:25.575Z,98307.06
2022-11-20T11:40:55.766Z,98305.25
2022-11-20T11:43:42.418Z,98312.25
2022-11-20T11:46:22.954Z,98317.41
2022-11-20T11:48:57.101Z,98317.13
2022-11-20T11:51:25.577Z,98328.16
2022-11-20T11:53:54.735Z,98323.09
2022-11-20T11:56:23.178Z,98329.22
2022-11-20T11:58:52.594Z,98327.16
2022-11-20T12:01:27.027Z,98333.81
2022-11-20T12:03:57.858Z,98338.22
2022-11-20T12:06:27.401Z,98332.22
2022-11-20T12:09:00.052Z,98336.19
2022-11-20T12:11:33.033Z,98327.38
2022-11-20T12:14:05.251Z,98331.22
2022-11-20T12:16:35.696Z,98347.94
2022-11-20T12:19:03.599Z,98355.38
2022-11-20T12:21:38.211Z,98344.34
2022-11-20T12:24:28.091Z,98350.13
2022-11-20T12:27:02.689Z,98348.03
2022-11-20T12:29:34.257Z,98338.94
2022-11-20T12:32:08.362Z,98331.50
2022-11-20T12:34:46.195Z,98324.84
2022-11-20T12:37:21.682Z,98321.25
2022-11-20T12:39:51.845Z,98327.78
2022-11-20T12:42:46.950Z,98328.25
2022-11-20T12:45:31.079Z,98314.69
2022-11-20T12:48:05.333Z,98316.09
2022-11-20T12:51:00.393Z,98307.09
2022-11-20T12:53:33.237Z,98298.75
2022-11-20T12:56:07.421Z,98311.75
2022-11-20T12:58:40.944Z,98320.13
2022-11-20T13:01:38.203Z,98326.94
2022-11-20T13:04:10.968Z,98330.66
2022-11-20T13:06:39.416Z,98332.03
2022-11-20T13:09:14.174Z,98335.66
2022-11-20T13:11:46.173Z,98333.88
2022-11-20T13:14:23.534Z,98358.50
2022-11-20T13:16:54.055Z,98353.53
2022-11-20T13:19:22.432Z,98342.63
2022-11-20T13:21:51.534Z,98348.59
2022-11-20T13:24:27.462Z,98364.25
2022-11-20T13:27:13.833Z,98363.69
2022-11-20T13:29:44.781Z,98359.97
2022-11-20T13:32:16.642Z,98371.34
2022-11-20T13:34:53.664Z,98367.75
2022-11-20T13:37:27.302Z,98369.88
2022-11-20T13:39:55.154Z,98373.16
2022-11-20T13:42:27.450Z,98367.50
2022-11-20T13:44:57.496Z,98362.75
2022-11-20T13:47:26.059Z,98352.94
2022-11-20T13:49:55.408Z,98353.97
2022-11-20T13:52:34.581Z,98359.25
2022-11-20T13:55:13.317Z,98350.25
2022-11-20T13:57:55.899Z,98346.97
2022-11-20T14:00:26.093Z,98354.97
2022-11-20T14:03:02.011Z,98361.72
2022-11-20T14:05:30.417Z,98364.72
2022-11-20T14:07:59.091Z,98375.75
2022-11-20T14:10:31.735Z,98380.34
2022-11-20T14:13:00.457Z,98383.84
2022-11-20T14:15:30.932Z,98391.28
2022-11-20T14:17:59.136Z,98390.97
2022-11-20T14:20:28.937Z,98390.19
2022-11-20T14:22:57.251Z,98383.63
2022-11-20T14:25:28.262Z,98397.94
2022-11-20T14:27:57.134Z,98386.22
2022-11-20T14:30:26.340Z,98395.00
2022-11-20T14:32:56.507Z,98385.97
2022-11-20T14:35:26.534Z,98390.94
2022-11-20T14:37:54.436Z,98385.84
2022-11-20T14:40:26.394Z,98378.88
2022-11-20T14:42:54.119Z,98377.28
2022-11-20T14:45:22.716Z,98387.66
2022-11-20T14:47:50.905Z,98384.94
2022-11-20T14:50:21.791Z,98379.88
2022-11-20T14:52:53.310Z,98377.47
2022-11-20T14:55:28.206Z,98373.09
2022-11-20T14:58:00.450Z,98364.88
2022-11-20T15:00:28.739Z,98356.97
2022-11-20T15:02:56.783Z,98358.06
2022-11-20T15:05:26.846Z,98363.34
2022-11-20T15:08:06.411Z,98363.44
2022-11-20T15:10:34.333Z,98361.41
2022-11-20T15:13:05.135Z,98368.72
2022-11-20T15:15:38.592Z,98364.75
2022-11-20T15:18:06.709Z,98368.59
2022-11-20T15:20:38.062Z,98356.97
2022-11-20T15:23:11.393Z,98342.69
2022-11-20T15:25:40.049Z,98346.19
2022-11-20T15:28:15.011Z,98339.34
2022-11-20T15:30:42.756Z,98344.06
2022-11-20T15:33:10.666Z,98341.84
2022-11-20T15:35:39.829Z,98353.88
2022-11-20T15:38:07.560Z,98364.38
2022-11-20T15:40:35.581Z,98357.38
2022-11-20T15:43:11.590Z,98363.44
2022-11-20T15:45:42.679Z,98359.47
2022-11-20T15:48:12.352Z,98367.59
2022-11-20T15:50:44.719Z,98365.22
2022-11-20T15:53:12.572Z,98365.44
2022-11-20T15:55:40.350Z,98362.25
2022-11-20T15:58:08.129Z,98367.66
2022-11-20T16:00:36.036Z,98370.81
2022-11-20T16:03:03.795Z,98366.34
2022-11-20T16:05:31.707Z,98368.84
2022-11-20T16:08:00.827Z,98372.31
2022-11-20T16:10:28.555Z,98385.03
2022-11-20T16:13:13.570Z,98397.88
2022-11-20T16:15:50.051Z,98378.19
2022-11-20T16:18:19.020Z,98376.28
2022-11-20T16:20:47.358Z,98360.06
2022-11-20T16:23:17.080Z,98362.00
2022-11-20T16:25:45.110Z,98355.69
2022-11-20T16:28:18.406Z,98364.09
2022-11-20T16:30:46.937Z,98368.06
2022-11-20T16:33:15.399Z,98367.25
2022-11-20T16:35:43.183Z,98362.19
2022-11-20T16:38:11.307Z,98359.69
2022-11-20T16:40:40.464Z,98365.44
2022-11-20T16:43:09.829Z,98368.78
2022-11-20T16:45:41.714Z,98363.38
2022-11-20T16:48:13.188Z,98370.34
2022-11-20T16:50:46.334Z,98379.38
2022-11-20T16:53:14.125Z,98376.03
2022-11-20T16:55:43.258Z,98374.91
2022-11-20T16:58:11.017Z,98386.47
2022-11-20T17:00:39.252Z,98386.81
2022-11-20T17:03:07.044Z,98384.56
2022-11-20T17:05:35.345Z,98393.13
2022-11-20T17:08:03.359Z,98394.38
2022-11-20T17:10:31.197Z,98402.94
2022-11-20T17:13:00.494Z,98390.56
2022-11-20T17:15:28.253Z,98382.69
2022-11-20T17:17:55.989Z,98380.50
2022-11-20T17:20:23.770Z,98376.41
2022-11-20T17:22:51.504Z,98381.56
2022-11-20T17:25:19.257Z,98385.25
2022-11-20T17:27:46.949Z,98385.13
2022-11-20T17:30:16.369Z,98403.06
2022-11-20T17:32:47.086Z,98398.19
2022-11-20T17:35:14.848Z,98411.34
2022-11-20T17:37:42.581Z,98415.16
2022-11-20T17:40:10.482Z,98422.59
2022-11-20T17:42:38.213Z,98414.31
2022-11-20T17:45:06.364Z,98414.94
2022-11-20T17:47:36.318Z,98406.34
2022-11-20T17:50:04.238Z,98413.66
2022-11-20T17:52:32.076Z,98410.19
2022-11-20T17:54:59.949Z,98407.34
2022-11-20T17:57:56.984Z,98418.00
2022-11-20T18:00:25.253Z,98419.13
2022-11-20T18:02:54.471Z,98416.75
2022-11-20T18:05:22.372Z,98413.38
2022-11-20T18:07:53.116Z,98405.28
2022-11-20T18:10:20.813Z,98409.13
2022-11-20T18:12:48.525Z,98405.50
2022-11-20T18:15:16.366Z,98417.56
2022-11-20T18:17:44.121Z,98411.34
2022-11-20T18:20:28.775Z,98415.63
2022-11-20T18:22:58.438Z,98413.59
2022-11-20T18:25:26.317Z,98412.16
2022-11-20T18:27:54.165Z,98412.47
2022-11-20T18:30:22.204Z,98418.66
2022-11-20T18:32:50.226Z,98415.97
2022-11-20T18:35:19.369Z,98420.78
2022-11-20T18:37:47.130Z,98420.63
2022-11-20T18:40:15.174Z,98417.94
2022-11-20T18:43:00.264Z,98417.34
2022-11-20T18:45:28.032Z,98413.19
2022-11-20T18:47:55.734Z,98409.84
2022-11-20T18:50:24.866Z,98414.28
2022-11-20T18:52:52.683Z,98403.06
2022-11-20T18:55:20.439Z,98407.03
2022-11-20T18:57:48.298Z,98414.47
2022-11-20T19:00:16.360Z,98409.84
2022-11-20T19:02:44.076Z,98411.28
2022-11-20T19:05:12.374Z,98415.72
2022-11-20T19:07:42.600Z,98413.63
2022-11-20T19:10:10.804Z,98406.75
2022-11-20T19:12:38.571Z,98407.69
2022-11-20T19:15:06.752Z,98421.97
2022-11-20T19:17:34.524Z,98428.50
2022-11-20T19:20:02.263Z,98433.09
2022-11-20T19:22:30.210Z,98423.41
2022-11-20T19:24:59.374Z,98410.59
2022-11-20T19:27:27.133Z,98412.38
2022-11-20T19:29:58.925Z,98413.19
2022-11-20T19:32:26.879Z,98406.41
2022-11-20T19:34:54.687Z,98410.88
2022-11-20T19:37:22.422Z,98404.06
2022-11-20T19:39:50.169Z,98408.56
2022-11-20T19:42:19.301Z,98404.25
2022-11-20T19:44:47.053Z,98415.03
2022-11-20T19:47:15.096Z,98410.03
2022-11-20T19:49:42.953Z,98401.00
2022-11-20T19:52:10.777Z,98399.56
2022-11-20T19:54:38.749Z,98413.03
2022-11-20T19:57:06.693Z,98405.13
2022-11-20T19:59:35.782Z,98391.50
2022-11-20T20:02:04.571Z,98393.56
2022-11-20T20:04:32.393Z,98401.47
2022-11-20T20:07:00.904Z,98404.91
2022-11-20T20:09:29.828Z,98407.44
2022-11-20T20:11:57.500Z,98408.34
2022-11-20T20:14:25.180Z,98414.06
2022-11-20T20:16:54.264Z,98410.91
2022-11-20T20:19:22.396Z,98409.16
2022-11-20T20:21:50.472Z,98415.56
2022-11-20T20:24:18.271Z,98414.94
2022-11-20T20:26:46.149Z,98404.94
2022-11-20T20:29:13.861Z,98400.81
2022-11-20T20:31:41.632Z,98405.69
2022-11-20T20:34:10.768Z,98396.50
2022-11-20T20:36:38.467Z,98388.72
2022-11-20T20:39:06.272Z,98389.50
2022-11-20T20:41:34.082Z,98389.19
2022-11-20T20:44:19.545Z,98390.31
2022-11-20T20:46:47.371Z,98390.31
2022-11-20T20:49:16.497Z,98394.91
2022-11-20T20:51:44.194Z,98390.94
2022-11-20T20:54:11.997Z,98397.00
2022-11-20T20:56:39.746Z,98401.28
2022-11-20T20:59:07.674Z,98405.06
2022-11-20T21:01:35.457Z,98410.63
2022-11-20T21:04:03.290Z,98386.81
2022-11-20T21:06:32.494Z,98388.59
2022-11-20T21:09:00.286Z,98384.94
2022-11-20T21:11:28.169Z,98379.44
2022-11-20T21:13:56.054Z,98384.34
2022-11-20T21:16:25.075Z,98371.50
2022-11-20T21:18:52.868Z,98378.25
2022-11-20T21:21:37.946Z,98378.09
2022-11-20T21:24:07.708Z,98377.00
2022-11-20T21:26:35.600Z,98376.22
2022-11-20T21:29:03.507Z,98368.41
2022-11-20T21:31:31.291Z,98371.28
2022-11-20T21:33:59.450Z,98376.31
2022-11-20T21:36:28.176Z,98368.25
2022-11-20T21:38:56.591Z,98370.75
2022-11-20T21:41:26.737Z,98377.09
2022-11-20T21:44:29.990Z,98382.28
2022-11-20T21:46:43.658Z,98374.69
2022-11-20T21:49:11.841Z,98373.56
2022-11-20T21:51:39.676Z,98378.28
2022-11-20T21:54:07.424Z,98373.72
2022-11-20T21:56:36.509Z,98363.72
2022-11-20T21:59:04.221Z,98355.94
2022-11-20T22:01:32.258Z,98344.25
2022-11-20T22:04:00.889Z,98338.56
2022-11-20T22:06:32.418Z,98334.44
2022-11-20T22:09:00.381Z,98337.91
2022-11-20T22:11:28.474Z,98332.84
2022-11-20T22:14:15.148Z,98328.91
2022-11-20T22:16:42.929Z,98333.16
2022-11-20T22:19:10.786Z,98329.03
2022-11-20T22:21:40.032Z,98321.44
2022-11-20T22:24:07.949Z,98327.75
2022-11-20T22:26:40.152Z,98321.69
2022-11-20T22:29:13.659Z,98308.22
2022-11-20T22:31:41.413Z,98297.44
2022-11-20T22:34:11.080Z,98300.59
2022-11-20T22:36:39.156Z,98308.22
2022-11-20T22:39:07.622Z,98303.94
2022-11-20T22:41:35.386Z,98302.81
2022-11-20T22:44:03.819Z,98295.88
2022-11-20T22:46:34.220Z,98288.56
2022-11-20T22:49:03.025Z,98293.94
2022-11-20T22:51:31.335Z,98287.59
2022-11-20T22:53:59.106Z,98273.47
2022-11-20T22:56:27.046Z,98270.44
2022-11-20T22:58:55.162Z,98253.81
2022-11-20T23:01:23.932Z,98259.97
2022-11-20T23:03:54.092Z,98276.47
2022-11-20T23:06:22.475Z,98291.66
2022-11-20T23:08:51.237Z,98286.28
2022-11-20T23:11:19.716Z,98283.13
2022-11-20T23:13:47.484Z,98279.97
2022-11-20T23:16:16.085Z,98281.41
2022-11-20T23:18:44.427Z,98281.72
2022-11-20T23:21:14.308Z,98282.50
2022-11-20T23:23:42.263Z,98287.91
2022-11-20T23:26:11.279Z,98301.53
2022-11-20T23:28:39.148Z,98284.91
2022-11-20T23:31:07.437Z,98275.88
2022-11-20T23:33:36.579Z,98268.78
2022-11-20T23:36:05.007Z,98264.81
2022-11-20T23:38:34.395Z,98245.19
2022-11-20T23:41:02.653Z,98245.50
2022-11-20T23:43:30.592Z,98254.34
2022-11-20T23:45:58.918Z,98247.75
2022-11-20T23:48:27.482Z,98241.09
2022-11-20T23:50:55.496Z,98233.81
2022-11-20T23:53:23.751Z,98238.06
2022-11-20T23:55:53.907Z,98234.91
2022-11-20T23:58:22.339Z,98230.16
